Time;durP1;ratioP1;P1;durP2;ratioP2;P2;SDS_P1;SDS_P2;PMS_P1;PMS_P2;Temp;Humidity;BMP_temperature;BMP_pressure;BME280_temperature;BME280_humidity;BME280_pressure;Samples;Min_cycle;Max_cycle;Signal;HPM_P1;HPM_P2
2023/04/02 00:02:16;;;;;;;12.88;2.72;;;;;;;;;;5037596;28;20492;-74
2023/04/02 00:04:43;;;;;;;12.60;3.35;;;;;;;;;;5043684;28;20028;-74
2023/04/02 00:07:29;;;;;;;11.07;3.33;;;;;;;;;;5043414;28;20571;-74
2023/04/02 00:09:56;;;;;;;15.13;3.75;;;;;;;;;;5053253;28;20044;-73
2023/04/02 00:12:22;;;;;;;16.83;3.50;;;;;;;;;;5047442;28;20386;-74
2023/04/02 00:14:53;;;;;;;14.40;3.72;;;;;;;;;;5045799;28;21398;-73
2023/04/02 00:17:20;;;;;;;11.80;3.75;;;;;;;;;;5044670;28;20095;-74
2023/04/02 00:19:50;;;;;;;12.90;3.40;;;;;;;;;;5047190;28;20033;-74
2023/04/02 00:22:20;;;;;;;13.95;3.05;;;;;;;;;;5043015;28;20028;-74
2023/04/02 00:24:49;;;;;;;12.65;3.70;;;;;;;;;;5026334;28;20134;-74
2023/04/02 00:27:16;;;;;;;17.70;4.10;;;;;;;;;;5043129;28;20170;-74
2023/04/02 00:29:52;;;;;;;10.30;3.05;;;;;;;;;;5043545;28;20033;-74
2023/04/02 00:32:21;;;;;;;14.00;3.83;;;;;;;;;;5045914;28;20040;-74
2023/04/02 00:34:47;;;;;;;11.77;3.28;;;;;;;;;;5044450;28;20044;-75
2023/04/02 00:37:17;;;;;;;14.25;3.42;;;;;;;;;;5046128;28;20025;-74
2023/04/02 00:39:43;;;;;;;13.10;3.30;;;;;;;;;;5046238;28;20452;-74
2023/04/02 00:42:12;;;;;;;10.80;3.58;;;;;;;;;;5046398;28;20473;-74
2023/04/02 00:44:43;;;;;;;17.23;3.13;;;;;;;;;;5046962;28;20052;-74
2023/04/02 00:47:15;;;;;;;18.85;4.25;;;;;;;;;;5045048;28;20099;-75
2023/04/02 00:49:42;;;;;;;12.48;3.35;;;;;;;;;;5046255;28;20037;-74
2023/04/02 00:52:13;;;;;;;19.75;4.75;;;;;;;;;;5050819;28;20033;-75
2023/04/02 00:54:43;;;;;;;16.13;3.40;;;;;;;;;;5048966;28;20125;-75
2023/04/02 00:57:15;;;;;;;14.20;3.90;;;;;;;;;;5044833;28;20335;-74
2023/04/02 00:59:56;;;;;;;12.55;3.13;;;;;;;;;;5046634;28;20055;-75
2023/04/02 01:02:25;;;;;;;10.87;3.60;;;;;;;;;;5042779;28;20025;-76
2023/04/02 01:04:52;;;;;;;12.32;3.60;;;;;;;;;;5043057;28;20036;-76
2023/04/02 01:07:21;;;;;;;12.43;3.47;;;;;;;;;;5041224;28;20033;-76
2023/04/02 01:10:10;;;;;;;11.13;3.30;;;;;;;;;;5045963;28;20068;-75
2023/04/02 01:12:36;;;;;;;23.73;3.63;;;;;;;;;;5046147;28;20047;-75
2023/04/02 01:15:08;;;;;;;11.77;3.25;;;;;;;;;;5045223;28;20051;-75
2023/04/02 01:17:57;;;;;;;25.20;3.78;;;;;;;;;;5043739;28;20148;-73
2023/04/02 01:20:26;;;;;;;11.82;3.58;;;;;;;;;;5038862;28;20081;-74
2023/04/02 01:22:58;;;;;;;13.48;3.65;;;;;;;;;;5045253;28;20021;-76
2023/04/02 01:25:45;;;;;;;13.70;4.00;;;;;;;;;;5045778;28;20575;-76
2023/04/02 01:28:19;;;;;;;18.63;2.95;;;;;;;;;;5036717;28;20060;-75
2023/04/02 01:30:52;;;;;;;16.05;4.10;;;;;;;;;;5050169;28;20021;-75
2023/04/02 01:33:21;;;;;;;13.15;4.05;;;;;;;;;;5045957;28;20040;-77
2023/04/02 01:35:49;;;;;;;11.75;3.13;;;;;;;;;;5045732;28;20029;-76
2023/04/02 01:38:20;;;;;;;11.18;3.45;;;;;;;;;;5045267;28;20482;-73
2023/04/02 01:40:57;;;;;;;10.25;3.67;;;;;;;;;;5044481;28;20033;-75
2023/04/02 01:43:37;;;;;;;19.35;4.15;;;;;;;;;;5045217;28;20362;-74
2023/04/02 01:46:23;;;;;;;13.27;3.30;;;;;;;;;;5044492;28;20717;-74
2023/04/02 01:48:49;;;;;;;13.93;4.07;;;;;;;;;;5042448;28;20033;-75
2023/04/02 01:51:35;;;;;;;14.75;3.42;;;;;;;;;;5038477;28;20028;-74
2023/04/02 01:54:02;;;;;;;14.30;3.97;;;;;;;;;;5041632;28;20104;-74
2023/04/02 01:56:29;;;;;;;14.68;3.78;;;;;;;;;;5036190;28;20074;-74
2023/04/02 01:58:56;;;;;;;10.18;3.28;;;;;;;;;;5039629;28;20040;-74
2023/04/02 02:01:24;;;;;;;13.48;2.92;;;;;;;;;;5033860;28;20373;-74
2023/04/02 02:03:51;;;;;;;17.15;3.58;;;;;;;;;;5047351;28;20025;-75
2023/04/02 02:06:18;;;;;;;20.77;3.30;;;;;;;;;;5038445;28;20486;-75
2023/04/02 02:08:47;;;;;;;17.60;3.40;;;;;;;;;;5040106;28;20091;-74
2023/04/02 02:11:18;;;;;;;11.25;3.05;;;;;;;;;;5040763;28;20035;-74
2023/04/02 02:13:53;;;;;;;15.95;3.78;;;;;;;;;;5041170;28;20475;-75
2023/04/02 02:16:19;;;;;;;14.05;3.33;;;;;;;;;;5032896;28;20104;-75
2023/04/02 02:18:49;;;;;;;17.38;4.28;;;;;;;;;;5042052;28;20148;-74
2023/04/02 02:21:42;;;;;;;11.45;2.70;;;;;;;;;;5032761;28;20024;-74
2023/04/02 02:24:19;;;;;;;17.65;3.78;;;;;;;;;;5037110;28;20053;-75
2023/04/02 02:26:48;;;;;;;12.18;3.28;;;;;;;;;;5041161;28;20024;-73
2023/04/02 02:29:17;;;;;;;16.35;4.07;;;;;;;;;;5048819;28;20123;-74
2023/04/02 02:31:44;;;;;;;16.20;2.80;;;;;;;;;;5041252;28;20086;-75
2023/04/02 02:34:18;;;;;;;12.95;3.28;;;;;;;;;;5043382;28;20025;-74
2023/04/02 02:36:49;;;;;;;13.60;3.20;;;;;;;;;;5044490;28;20457;-73
2023/04/02 02:39:19;;;;;;;23.88;3.10;;;;;;;;;;5051487;28;20067;-75
2023/04/02 02:41:57;;;;;;;12.63;3.10;;;;;;;;;;5045183;28;20115;-75
2023/04/02 02:44:25;;;;;;;15.68;3.33;;;;;;;;;;5037715;28;20035;-74
2023/04/02 02:46:57;;;;;;;13.02;3.10;;;;;;;;;;5045287;28;20078;-74
2023/04/02 02:49:27;;;;;;;14.68;2.70;;;;;;;;;;5036439;28;20079;-74
2023/04/02 02:51:57;;;;;;;13.38;3.67;;;;;;;;;;5045471;28;20139;-75
2023/04/02 02:54:25;;;;;;;13.77;3.63;;;;;;;;;;5037720;28;20032;-74
2023/04/02 02:56:55;;;;;;;21.20;3.90;;;;;;;;;;5044651;28;20060;-74
2023/04/02 02:59:22;;;;;;;13.25;2.92;;;;;;;;;;5035271;28;20485;-75
2023/04/02 03:01:48;;;;;;;10.73;2.30;;;;;;;;;;5045157;28;20025;-74
2023/04/02 03:04:21;;;;;;;6.78;2.15;;;;;;;;;;5044474;28;20021;-73
2023/04/02 03:06:49;;;;;;;13.57;2.65;;;;;;;;;;5039180;28;20048;-74
2023/04/02 03:09:18;;;;;;;9.05;2.08;;;;;;;;;;5043548;28;20040;-75
2023/04/02 03:11:54;;;;;;;15.00;3.10;;;;;;;;;;5044582;28;20021;-74
2023/04/02 03:14:26;;;;;;;8.60;2.42;;;;;;;;;;5050467;28;20394;-74
2023/04/02 03:16:57;;;;;;;6.75;2.03;;;;;;;;;;5044356;28;20144;-75
2023/04/02 03:19:47;;;;;;;11.43;2.30;;;;;;;;;;5035040;28;20488;-75
2023/04/02 03:22:31;;;;;;;8.93;2.05;;;;;;;;;;5039303;28;20409;-74
2023/04/02 03:25:15;;;;;;;13.85;2.22;;;;;;;;;;5044385;28;20032;-75
2023/04/02 03:27:43;;;;;;;7.63;2.40;;;;;;;;;;5037701;28;20107;-73
2023/04/02 03:30:15;;;;;;;6.97;2.00;;;;;;;;;;5044325;28;20554;-74
2023/04/02 03:32:43;;;;;;;8.35;2.05;;;;;;;;;;5043972;28;20026;-74
2023/04/02 03:35:24;;;;;;;7.22;1.77;;;;;;;;;;5041672;28;20041;-74
2023/04/02 03:38:16;;;;;;;8.43;1.88;;;;;;;;;;5044493;28;20041;-74
2023/04/02 03:40:51;;;;;;;7.68;2.10;;;;;;;;;;5022997;28;20041;-74
2023/04/02 03:43:25;;;;;;;8.05;2.63;;;;;;;;;;5042485;28;20033;-75
2023/04/02 03:45:55;;;;;;;8.20;2.28;;;;;;;;;;5042937;28;20029;-76
2023/04/02 03:48:27;;;;;;;11.77;2.08;;;;;;;;;;5043738;28;20039;-73
2023/04/02 03:50:56;;;;;;;8.35;1.80;;;;;;;;;;5043866;28;20025;-73
2023/04/02 03:53:26;;;;;;;11.95;2.22;;;;;;;;;;5040748;28;20601;-74
2023/04/02 03:55:52;;;;;;;10.02;1.70;;;;;;;;;;5043304;28;20017;-73
2023/04/02 03:58:38;;;;;;;5.90;1.65;;;;;;;;;;5043279;28;20416;-74
2023/04/02 04:01:08;;;;;;;10.70;2.53;;;;;;;;;;5043472;28;20021;-74
2023/04/02 04:03:37;;;;;;;10.32;1.65;;;;;;;;;;5043770;28;20552;-74
2023/04/02 04:06:11;;;;;;;7.00;2.47;;;;;;;;;;5042057;28;20025;-74
2023/04/02 04:08:42;;;;;;;8.20;1.60;;;;;;;;;;5035003;28;20040;-74
2023/04/02 04:11:10;;;;;;;10.23;2.03;;;;;;;;;;5042922;28;20032;-75
2023/04/02 04:13:42;;;;;;;8.88;2.40;;;;;;;;;;5043431;28;20328;-75
2023/04/02 04:16:18;;;;;;;7.25;2.17;;;;;;;;;;5043519;28;20036;-74
2023/04/02 04:18:50;;;;;;;11.82;2.15;;;;;;;;;;5021841;28;20051;-75
2023/04/02 04:21:16;;;;;;;9.90;1.67;;;;;;;;;;5021798;28;20531;-73
2023/04/02 04:23:49;;;;;;;6.80;1.80;;;;;;;;;;5022991;28;20017;-74
2023/04/02 04:26:34;;;;;;;11.27;2.13;;;;;;;;;;5025702;28;20037;-75
2023/04/02 04:29:04;;;;;;;9.18;1.80;;;;;;;;;;5023452;28;20368;-74
2023/04/02 04:31:45;;;;;;;11.15;1.80;;;;;;;;;;5030094;28;20509;-74
2023/04/02 04:34:35;;;;;;;7.03;1.52;;;;;;;;;;5022869;28;20029;-75
2023/04/02 04:37:06;;;;;;;14.65;2.60;;;;;;;;;;5018955;28;20022;-75
2023/04/02 04:39:48;;;;;;;8.30;1.83;;;;;;;;;;5032090;28;20029;-73
2023/04/02 04:42:20;;;;;;;8.27;1.70;;;;;;;;;;5023595;28;20034;-74
2023/04/02 04:44:45;;;;;;;;;;;;;;;;;;5023699;28;20524;-74
2023/04/02 04:47:26;;;;;;;15.38;1.98;;;;;;;;;;5022416;28;19947;-75
2023/04/02 04:49:55;;;;;;;10.38;2.50;;;;;;;;;;5022954;28;20033;-74
2023/04/02 04:52:23;;;;;;;10.52;2.17;;;;;;;;;;5022762;28;20032;-73
2023/04/02 04:54:49;;;;;;;10.75;2.35;;;;;;;;;;5021142;28;20017;-75
2023/04/02 04:57:27;;;;;;;27.33;3.45;;;;;;;;;;5022169;28;20025;-73
2023/04/02 05:00:12;;;;;;;11.13;1.98;;;;;;;;;;5024872;28;20041;-73
2023/04/02 05:02:47;;;;;;;8.40;1.95;;;;;;;;;;5024328;28;20029;-73
2023/04/02 05:05:18;;;;;;;11.35;1.77;;;;;;;;;;5020220;28;20068;-73
2023/04/02 05:07:47;;;;;;;7.50;1.92;;;;;;;;;;5020365;28;20148;-72
2023/04/02 05:10:19;;;;;;;8.88;1.83;;;;;;;;;;5020471;28;20018;-73
2023/04/02 05:12:49;;;;;;;4.72;1.65;;;;;;;;;;5020969;28;20025;-73
2023/04/02 05:15:22;;;;;;;5.47;1.45;;;;;;;;;;5021872;28;20025;-73
2023/04/02 05:17:54;;;;;;;6.63;2.10;;;;;;;;;;5034483;28;20057;-72
2023/04/02 05:20:24;;;;;;;10.45;1.70;;;;;;;;;;5040544;28;20106;-73
2023/04/02 05:22:55;;;;;;;7.88;1.80;;;;;;;;;;5046007;28;20042;-73
2023/04/02 05:25:28;;;;;;;10.80;1.65;;;;;;;;;;5042949;28;20392;-74
2023/04/02 05:27:55;;;;;;;9.68;1.80;;;;;;;;;;5041030;28;20024;-73
2023/04/02 05:30:24;;;;;;;9.27;1.60;;;;;;;;;;5040176;28;20052;-73
2023/04/02 05:32:56;;;;;;;15.00;2.83;;;;;;;;;;5040805;28;20449;-72
2023/04/02 05:35:25;;;;;;;8.48;2.38;;;;;;;;;;5037160;28;20067;-73
2023/04/02 05:37:51;;;;;;;16.55;3.20;;;;;;;;;;5045748;28;20039;-72
2023/04/02 05:40:21;;;;;;;10.90;2.60;;;;;;;;;;5043432;28;20104;-72
2023/04/02 05:42:48;;;;;;;11.63;2.50;;;;;;;;;;5041151;28;20051;-72
2023/04/02 05:45:24;;;;;;;10.60;2.83;;;;;;;;;;5039366;28;20023;-73
2023/04/02 05:47:56;;;;;;;14.70;2.85;;;;;;;;;;5039810;28;20104;-73
2023/04/02 05:50:22;;;;;;;12.35;2.22;;;;;;;;;;5048319;28;20025;-72
2023/04/02 05:52:51;;;;;;;10.82;2.28;;;;;;;;;;5039996;28;20060;-76
2023/04/02 05:55:18;;;;;;;7.63;1.80;;;;;;;;;;5040937;28;20028;-73
2023/04/02 05:57:47;;;;;;;8.10;2.13;;;;;;;;;;5033104;28;20680;-72
2023/04/02 06:00:16;;;;;;;9.38;2.75;;;;;;;;;;5044921;28;20032;-73
2023/04/02 06:02:46;;;;;;;5.90;1.90;;;;;;;;;;5041141;28;20032;-72
2023/04/02 06:05:15;;;;;;;8.40;2.30;;;;;;;;;;5040694;28;20029;-72
2023/04/02 06:07:50;;;;;;;10.07;2.40;;;;;;;;;;5040901;28;20025;-74
2023/04/02 06:10:22;;;;;;;7.68;2.30;;;;;;;;;;5043187;28;20025;-73
2023/04/02 06:12:51;;;;;;;9.52;2.40;;;;;;;;;;5039108;28;20388;-74
2023/04/02 06:15:20;;;;;;;23.38;8.88;;;;;;;;;;5055517;28;20505;-75
2023/04/02 06:17:52;;;;;;;16.27;5.32;;;;;;;;;;5052780;28;20099;-74
2023/04/02 06:20:18;;;;;;;;;;;;;;;;;;5043885;28;20059;-76
2023/04/02 06:22:45;;;;;;;8.57;2.67;;;;;;;;;;5052709;28;19955;-74
2023/04/02 06:25:16;;;;;;;9.13;2.47;;;;;;;;;;5044528;28;20039;-74
2023/04/02 06:27:43;;;;;;;10.98;3.38;;;;;;;;;;5044918;28;20021;-74
2023/04/02 06:30:16;;;;;;;14.55;5.53;;;;;;;;;;5042978;28;20028;-73
2023/04/02 06:32:42;;;;;;;13.50;5.35;;;;;;;;;;5044033;28;20025;-73
2023/04/02 06:35:12;;;;;;;16.80;5.55;;;;;;;;;;5043699;28;20100;-73
2023/04/02 06:37:39;;;;;;;15.20;4.10;;;;;;;;;;5050670;28;20029;-73
2023/04/02 06:40:17;;;;;;;15.75;3.15;;;;;;;;;;5042496;28;20036;-73
2023/04/02 06:42:44;;;;;;;13.07;3.50;;;;;;;;;;5044688;28;20094;-73
2023/04/02 06:45:22;;;;;;;11.52;2.92;;;;;;;;;;5052066;28;20821;-73
2023/04/02 06:47:50;;;;;;;11.90;3.10;;;;;;;;;;5050757;28;20035;-74
2023/04/02 06:50:22;;;;;;;11.63;4.05;;;;;;;;;;5044450;28;20032;-73
2023/04/02 06:52:51;;;;;;;12.88;3.05;;;;;;;;;;5051634;28;20028;-74
2023/04/02 06:55:26;;;;;;;11.32;4.30;;;;;;;;;;5044469;28;20035;-73
2023/04/02 06:57:52;;;;;;;12.13;3.03;;;;;;;;;;5044049;28;20638;-74
2023/04/02 07:00:27;;;;;;;12.43;2.95;;;;;;;;;;5051504;28;20032;-73
2023/04/02 07:02:55;;;;;;;12.40;3.53;;;;;;;;;;5043236;28;20489;-73
2023/04/02 07:05:21;;;;;;;11.30;3.08;;;;;;;;;;5043605;28;20036;-73
2023/04/02 07:07:47;;;;;;;12.13;2.63;;;;;;;;;;5042893;28;20052;-73
2023/04/02 07:10:14;;;;;;;14.30;3.35;;;;;;;;;;5056402;28;20032;-72
2023/04/02 07:12:40;;;;;;;13.82;3.28;;;;;;;;;;5046896;28;20020;-72
2023/04/02 07:15:06;;;;;;;13.98;2.80;;;;;;;;;;5049749;28;20031;-73
2023/04/02 07:17:33;;;;;;;11.27;3.33;;;;;;;;;;5042490;28;20041;-72
2023/04/02 07:19:59;;;;;;;12.75;2.97;;;;;;;;;;5042232;28;20448;-73
2023/04/02 07:22:25;;;;;;;11.60;2.88;;;;;;;;;;5043321;28;20584;-72
2023/04/02 07:24:52;;;;;;;9.50;2.65;;;;;;;;;;5042042;28;20037;-72
2023/04/02 07:27:18;;;;;;;13.45;2.58;;;;;;;;;;5042771;28;20029;-73
2023/04/02 07:29:44;;;;;;;12.18;3.10;;;;;;;;;;5047156;28;20035;-72
2023/04/02 07:32:13;;;;;;;14.77;3.08;;;;;;;;;;5043000;28;20033;-73
2023/04/02 07:34:40;;;;;;;13.55;3.45;;;;;;;;;;5042925;28;20031;-72
2023/04/02 07:37:06;;;;;;;12.75;2.83;;;;;;;;;;5041469;28;20111;-72
2023/04/02 07:39:32;;;;;;;12.70;3.60;;;;;;;;;;5046523;28;20504;-72
2023/04/02 07:42:00;;;;;;;13.98;2.90;;;;;;;;;;5045424;28;20029;-72
2023/04/02 07:44:26;;;;;;;10.52;2.95;;;;;;;;;;5045110;28;20028;-69
2023/04/02 07:46:53;;;;;;;19.70;3.33;;;;;;;;;;5044191;28;20048;-69
2023/04/02 07:49:20;;;;;;;12.75;3.17;;;;;;;;;;5045817;28;20020;-70
2023/04/02 07:51:46;;;;;;;12.07;2.70;;;;;;;;;;5052761;28;20497;-70
2023/04/02 07:54:12;;;;;;;11.18;2.47;;;;;;;;;;5041961;28;20133;-74
2023/04/02 07:56:38;;;;;;;11.60;2.83;;;;;;;;;;5043619;28;20051;-75
2023/04/02 07:59:05;;;;;;;10.23;2.75;;;;;;;;;;5043240;28;20025;-75
2023/04/02 08:01:34;;;;;;;6.10;2.35;;;;;;;;;;5041594;28;20032;-74
2023/04/02 08:04:01;;;;;;;13.05;3.22;;;;;;;;;;5050342;28;20025;-74
2023/04/02 08:06:27;;;;;;;17.63;3.20;;;;;;;;;;5041105;28;20427;-73
2023/04/02 08:08:53;;;;;;;11.48;2.63;;;;;;;;;;5043118;28;20035;-74
2023/04/02 08:11:19;;;;;;;9.57;2.53;;;;;;;;;;5042374;28;20017;-74
2023/04/02 08:13:46;;;;;;;10.02;2.40;;;;;;;;;;5048747;28;20029;-74
2023/04/02 08:16:12;;;;;;;13.70;2.65;;;;;;;;;;5042830;28;20025;-75
2023/04/02 08:18:38;;;;;;;16.60;2.75;;;;;;;;;;5042139;28;20060;-75
2023/04/02 08:21:09;;;;;;;12.52;3.35;;;;;;;;;;5034834;28;20508;-75
2023/04/02 08:23:36;;;;;;;11.20;2.50;;;;;;;;;;5042086;28;20029;-73
2023/04/02 08:26:02;;;;;;;15.65;2.63;;;;;;;;;;5048595;28;20037;-73
2023/04/02 08:28:28;;;;;;;11.15;3.30;;;;;;;;;;5042110;28;20150;-74
2023/04/02 08:30:54;;;;;;;13.85;2.83;;;;;;;;;;5040915;28;20017;-75
2023/04/02 08:33:20;;;;;;;13.15;2.33;;;;;;;;;;5043185;28;20021;-74
2023/04/02 08:35:47;;;;;;;9.98;2.45;;;;;;;;;;5049362;28;20035;-74
2023/04/02 08:38:14;;;;;;;13.73;2.45;;;;;;;;;;5040174;28;20552;-73
2023/04/02 08:40:43;;;;;;;8.88;2.17;;;;;;;;;;5042724;28;20025;-74
2023/04/02 08:43:15;;;;;;;12.52;2.90;;;;;;;;;;5042703;28;20059;-73
2023/04/02 08:45:50;;;;;;;16.00;3.28;;;;;;;;;;5042288;28;20413;-73
2023/04/02 08:48:17;;;;;;;13.23;2.72;;;;;;;;;;5036163;28;20086;-73
2023/04/02 08:50:44;;;;;;;15.60;3.42;;;;;;;;;;5048043;28;20558;-73
2023/04/02 08:53:13;;;;;;;14.50;3.10;;;;;;;;;;5042852;28;20124;-73
2023/04/02 08:55:42;;;;;;;14.05;2.03;;;;;;;;;;5042245;28;20032;-73
2023/04/02 08:58:17;;;;;;;11.73;2.65;;;;;;;;;;5049765;28;20037;-74
2023/04/02 09:00:45;;;;;;;13.63;2.53;;;;;;;;;;5037582;28;20132;-74
2023/04/02 09:03:19;;;;;;;11.18;2.83;;;;;;;;;;5042441;28;20027;-73
2023/04/02 09:05:46;;;;;;;8.20;2.40;;;;;;;;;;5036938;28;20140;-73
2023/04/02 09:08:23;;;;;;;11.77;2.30;;;;;;;;;;5042058;28;20067;-73
2023/04/02 09:10:52;;;;;;;10.30;2.85;;;;;;;;;;5041822;28;20025;-73
2023/04/02 09:13:23;;;;;;;11.57;2.25;;;;;;;;;;5048595;28;20499;-73
2023/04/02 09:15:50;;;;;;;9.88;2.10;;;;;;;;;;5041607;28;20132;-74
2023/04/02 09:18:17;;;;;;;9.77;2.35;;;;;;;;;;5043878;28;20057;-73
2023/04/02 09:20:44;;;;;;;12.43;2.92;;;;;;;;;;5043620;28;20497;-74
2023/04/02 09:23:17;;;;;;;11.10;3.15;;;;;;;;;;5047660;28;20021;-74
2023/04/02 09:25:46;;;;;;;10.80;2.20;;;;;;;;;;5042082;28;20059;-73
2023/04/02 09:28:13;;;;;;;7.38;1.95;;;;;;;;;;5040565;28;20033;-74
2023/04/02 09:30:58;;;;;;;12.95;2.53;;;;;;;;;;5045830;28;20024;-74
2023/04/02 09:33:43;;;;;;;8.82;2.60;;;;;;;;;;5041378;28;20533;-76
2023/04/02 09:36:25;;;;;;;12.35;2.40;;;;;;;;;;5047107;28;20037;-74
2023/04/02 09:39:05;;;;;;;8.10;2.22;;;;;;;;;;5040470;28;20458;-73
2023/04/02 09:41:32;;;;;;;9.40;2.03;;;;;;;;;;5040390;28;20021;-73
2023/04/02 09:44:17;;;;;;;13.73;2.58;;;;;;;;;;5040024;28;20976;-74
2023/04/02 09:46:51;;;;;;;9.07;1.98;;;;;;;;;;5041551;28;20103;-73
2023/04/02 09:49:18;;;;;;;7.55;2.47;;;;;;;;;;5038419;28;20033;-73
2023/04/02 09:51:44;;;;;;;10.57;2.40;;;;;;;;;;5040819;28;20055;-73
2023/04/02 09:54:15;;;;;;;14.80;2.45;;;;;;;;;;5041482;28;20028;-74
2023/04/02 09:56:59;;;;;;;11.68;2.88;;;;;;;;;;5045375;28;20124;-74
2023/04/02 09:59:25;;;;;;;11.95;3.08;;;;;;;;;;5036475;28;20037;-73
2023/04/02 10:01:55;;;;;;;11.95;2.35;;;;;;;;;;5038653;28;20388;-74
2023/04/02 10:04:27;;;;;;;14.88;2.78;;;;;;;;;;5040034;28;20024;-73
2023/04/02 10:06:56;;;;;;;13.38;3.25;;;;;;;;;;5041030;28;20519;-73
2023/04/02 10:09:31;;;;;;;9.00;1.67;;;;;;;;;;5039934;28;20118;-73
2023/04/02 10:11:58;;;;;;;13.80;2.22;;;;;;;;;;5038307;28;20052;-74
2023/04/02 10:14:27;;;;;;;12.05;2.70;;;;;;;;;;5039957;28;20021;-73
2023/04/02 10:16:57;;;;;;;9.15;1.67;;;;;;;;;;5041018;28;20055;-74
2023/04/02 10:19:37;;;;;;;13.50;2.38;;;;;;;;;;5033597;28;20037;-74
2023/04/02 10:22:05;;;;;;;14.88;2.33;;;;;;;;;;5037306;28;20021;-74
2023/04/02 10:24:31;;;;;;;13.57;2.70;;;;;;;;;;5040201;28;20060;-73
2023/04/02 10:27:08;;;;;;;14.52;3.42;;;;;;;;;;5039963;28;20036;-74
2023/04/02 10:29:45;;;;;;;9.93;2.15;;;;;;;;;;5038175;28;20025;-73
2023/04/02 10:32:31;;;;;;;9.77;2.85;;;;;;;;;;5038522;28;20559;-73
2023/04/02 10:34:57;;;;;;;13.77;2.60;;;;;;;;;;5037859;28;20033;-74
2023/04/02 10:37:29;;;;;;;9.18;2.70;;;;;;;;;;5038796;28;20432;-73
2023/04/02 10:40:02;;;;;;;10.05;2.33;;;;;;;;;;5037560;28;20814;-73
2023/04/02 10:42:38;;;;;;;13.38;2.60;;;;;;;;;;5038094;28;20071;-73
2023/04/02 10:45:17;;;;;;;8.30;3.15;;;;;;;;;;5037861;28;20036;-74
2023/04/02 10:48:00;;;;;;;10.57;2.75;;;;;;;;;;5043918;28;20033;-73
2023/04/02 10:50:38;;;;;;;18.73;3.17;;;;;;;;;;5039344;28;20021;-74
2023/04/02 10:53:30;;;;;;;10.00;2.60;;;;;;;;;;5037769;28;20104;-74
2023/04/02 10:56:02;;;;;;;13.52;2.78;;;;;;;;;;5041326;28;20049;-74
2023/04/02 10:58:30;;;;;;;6.72;1.83;;;;;;;;;;5043744;28;20094;-74
2023/04/02 11:00:59;;;;;;;12.50;3.90;;;;;;;;;;5043352;28;20025;-73
2023/04/02 11:03:36;;;;;;;9.98;2.92;;;;;;;;;;5042510;28;20441;-74
2023/04/02 11:06:05;;;;;;;10.40;3.00;;;;;;;;;;5038421;28;20024;-74
2023/04/02 11:08:42;;;;;;;13.88;2.58;;;;;;;;;;5044033;28;20581;-73
2023/04/02 11:11:08;;;;;;;12.57;2.70;;;;;;;;;;5042684;28;20048;-74
2023/04/02 11:13:43;;;;;;;10.23;3.05;;;;;;;;;;5042999;28;20060;-74
2023/04/02 11:16:14;;;;;;;13.55;2.78;;;;;;;;;;5043032;28;20689;-73
2023/04/02 11:18:40;;;;;;;7.90;2.42;;;;;;;;;;5041862;28;20587;-74
2023/04/02 11:21:33;;;;;;;14.70;2.50;;;;;;;;;;5041692;28;20021;-73
2023/04/02 11:24:00;;;;;;;10.52;2.10;;;;;;;;;;5026781;28;20134;-74
2023/04/02 11:26:29;;;;;;;10.07;2.30;;;;;;;;;;5046902;28;20029;-74
2023/04/02 11:29:22;;;;;;;10.65;2.30;;;;;;;;;;5039990;28;20021;-74
2023/04/02 11:31:50;;;;;;;15.07;2.70;;;;;;;;;;5042043;28;20091;-73
2023/04/02 11:34:35;;;;;;;11.60;2.92;;;;;;;;;;5049684;28;20064;-73
2023/04/02 11:37:03;;;;;;;13.85;3.88;;;;;;;;;;5042840;28;20080;-74
2023/04/02 11:39:52;;;;;;;20.60;3.47;;;;;;;;;;5039502;28;20497;-73
2023/04/02 11:42:18;;;;;;;7.03;2.00;;;;;;;;;;5041015;28;20828;-73
2023/04/02 11:44:44;;;;;;;10.95;3.15;;;;;;;;;;5024097;28;20079;-74
2023/04/02 11:47:15;;;;;;;11.25;3.15;;;;;;;;;;5042354;28;20040;-74
2023/04/02 11:49:56;;;;;;;9.77;2.35;;;;;;;;;;5042365;28;20090;-74
2023/04/02 11:52:42;;;;;;;18.55;3.63;;;;;;;;;;5041889;28;20577;-75
2023/04/02 11:55:23;;;;;;;20.35;3.40;;;;;;;;;;5033619;28;20053;-71
2023/04/02 11:57:59;;;;;;;18.00;2.90;;;;;;;;;;5041498;28;20024;-72
2023/04/02 12:00:41;;;;;;;26.48;4.30;;;;;;;;;;5041452;28;20040;-74
2023/04/02 12:03:24;;;;;;;15.68;2.60;;;;;;;;;;5041197;28;20052;-75
2023/04/02 12:05:59;;;;;;;13.27;2.72;;;;;;;;;;5040514;28;20025;-74
2023/04/02 12:08:34;;;;;;;11.93;2.50;;;;;;;;;;5040712;28;20806;-75
2023/04/02 12:11:01;;;;;;;9.70;2.40;;;;;;;;;;5042334;28;20481;-74
2023/04/02 12:13:57;;;;;;;12.38;2.75;;;;;;;;;;5041811;28;20039;-75
2023/04/02 12:16:23;;;;;;;16.52;2.95;;;;;;;;;;5033989;28;20059;-75
2023/04/02 12:18:53;;;;;;;12.88;2.67;;;;;;;;;;5040794;28;20421;-72
2023/04/02 12:21:20;;;;;;;11.23;2.47;;;;;;;;;;5039825;28;20040;-73
2023/04/02 12:23:48;;;;;;;14.63;3.22;;;;;;;;;;5041761;28;20108;-74
2023/04/02 12:26:26;;;;;;;15.52;2.53;;;;;;;;;;5041287;28;20065;-71
2023/04/02 12:28:53;;;;;;;11.98;2.60;;;;;;;;;;5040539;28;20055;-70
2023/04/02 12:31:21;;;;;;;28.10;3.65;;;;;;;;;;5041294;28;20027;-70
2023/04/02 12:33:51;;;;;;;14.20;2.67;;;;;;;;;;5041841;28;20598;-73
2023/04/02 12:36:17;;;;;;;11.48;2.78;;;;;;;;;;5041666;28;20025;-73
2023/04/02 12:38:45;;;;;;;13.32;2.15;;;;;;;;;;5040276;28;20037;-74
2023/04/02 12:41:29;;;;;;;9.00;2.13;;;;;;;;;;5042350;28;20087;-73
2023/04/02 12:43:59;;;;;;;11.02;2.15;;;;;;;;;;5041031;28;20052;-74
2023/04/02 12:46:26;;;;;;;9.90;2.55;;;;;;;;;;5039029;28;20029;-74
2023/04/02 12:48:53;;;;;;;10.27;2.13;;;;;;;;;;5041984;28;20033;-73
2023/04/02 12:51:19;;;;;;;9.00;2.00;;;;;;;;;;5040823;28;20621;-73
2023/04/02 12:53:50;;;;;;;12.32;3.22;;;;;;;;;;5041401;28;20033;-74
2023/04/02 12:56:20;;;;;;;11.77;2.10;;;;;;;;;;5041298;28;20029;-73
2023/04/02 12:58:52;;;;;;;7.75;1.90;;;;;;;;;;5034242;28;20795;-72
2023/04/02 13:01:20;;;;;;;11.10;1.95;;;;;;;;;;5039733;28;20413;-73
2023/04/02 13:04:05;;;;;;;9.35;2.30;;;;;;;;;;5041817;28;20033;-73
2023/04/02 13:06:32;;;;;;;8.88;3.20;;;;;;;;;;5040441;28;20041;-74
2023/04/02 13:08:58;;;;;;;7.20;1.80;;;;;;;;;;5040354;28;20096;-73
2023/04/02 13:11:41;;;;;;;10.20;2.58;;;;;;;;;;5040341;28;20031;-73
2023/04/02 13:14:09;;;;;;;6.68;1.70;;;;;;;;;;5039702;28;20577;-75
2023/04/02 13:16:37;;;;;;;7.80;1.92;;;;;;;;;;5040486;28;20691;-72
2023/04/02 13:19:10;;;;;;;9.50;2.22;;;;;;;;;;5040242;28;20557;-72
2023/04/02 13:21:37;;;;;;;11.23;1.98;;;;;;;;;;5037356;28;20948;-73
2023/04/02 13:24:04;;;;;;;8.45;1.85;;;;;;;;;;5041377;28;20032;-72
2023/04/02 13:26:30;;;;;;;7.45;1.40;;;;;;;;;;5039992;28;20033;-74
2023/04/02 13:28:56;;;;;;;5.13;1.58;;;;;;;;;;5040632;28;20047;-74
2023/04/02 13:31:22;;;;;;;6.95;1.70;;;;;;;;;;5040278;28;20029;-73
2023/04/02 13:33:48;;;;;;;10.18;2.55;;;;;;;;;;5040099;28;20705;-73
2023/04/02 13:36:15;;;;;;;8.60;1.77;;;;;;;;;;5038746;28;20071;-72
2023/04/02 13:38:41;;;;;;;6.90;1.77;;;;;;;;;;5040284;28;20037;-73
2023/04/02 13:41:27;;;;;;;9.60;2.08;;;;;;;;;;5040333;28;20036;-72
2023/04/02 13:43:54;;;;;;;18.63;3.75;;;;;;;;;;5032225;28;20642;-72
2023/04/02 13:46:22;;;;;;;7.18;1.92;;;;;;;;;;5040135;28;20041;-72
2023/04/02 13:48:49;;;;;;;8.73;1.95;;;;;;;;;;5040889;28;20017;-72
2023/04/02 13:51:17;;;;;;;6.57;1.50;;;;;;;;;;5038916;28;20041;-73
2023/04/02 13:53:45;;;;;;;10.10;1.80;;;;;;;;;;5040302;28;20040;-75
2023/04/02 13:56:11;;;;;;;10.40;2.00;;;;;;;;;;5038124;28;20037;-72
2023/04/02 13:58:37;;;;;;;6.25;1.60;;;;;;;;;;5040069;28;20112;-73
2023/04/02 14:01:03;;;;;;;7.72;2.38;;;;;;;;;;5039180;28;20029;-72
2023/04/02 14:03:30;;;;;;;5.13;1.10;;;;;;;;;;5040400;28;20055;-72
2023/04/02 14:05:56;;;;;;;5.78;1.35;;;;;;;;;;5038355;28;20654;-73
2023/04/02 14:08:43;;;;;;;7.22;1.85;;;;;;;;;;5039771;28;20041;-72
2023/04/02 14:11:23;;;;;;;7.13;1.50;;;;;;;;;;5024701;28;20045;-73
2023/04/02 14:14:07;;;;;;;7.55;1.30;;;;;;;;;;5039866;28;20098;-71
2023/04/02 14:16:52;;;;;;;10.70;2.38;;;;;;;;;;5039441;28;20066;-72
2023/04/02 14:19:24;;;;;;;5.57;2.30;;;;;;;;;;5035913;28;20648;-72
2023/04/02 14:22:09;;;;;;;9.32;2.10;;;;;;;;;;5031601;28;20035;-73
2023/04/02 14:24:44;;;;;;;8.85;1.80;;;;;;;;;;5037956;28;20492;-73
2023/04/02 14:27:10;;;;;;;6.07;1.20;;;;;;;;;;5039855;28;20504;-73
2023/04/02 14:29:55;;;;;;;8.05;1.58;;;;;;;;;;5039250;28;20437;-73
2023/04/02 14:32:36;;;;;;;5.53;1.63;;;;;;;;;;5041913;28;20810;-73
2023/04/02 14:35:15;;;;;;;11.63;1.70;;;;;;;;;;5035859;28;20027;-72
2023/04/02 14:37:50;;;;;;;7.40;1.80;;;;;;;;;;5042763;28;20041;-73
2023/04/02 14:40:16;;;;;;;7.03;1.35;;;;;;;;;;5037718;28;20041;-72
2023/04/02 14:42:42;;;;;;;7.00;1.45;;;;;;;;;;5042686;28;20066;-73
2023/04/02 14:45:16;;;;;;;4.95;1.30;;;;;;;;;;5042750;28;20107;-72
2023/04/02 14:47:46;;;;;;;8.52;1.90;;;;;;;;;;5041082;28;20055;-72
2023/04/02 14:50:15;;;;;;;6.22;1.40;;;;;;;;;;5042394;28;20025;-74
2023/04/02 14:52:43;;;;;;;7.53;1.50;;;;;;;;;;5042451;28;20033;-73
2023/04/02 14:55:13;;;;;;;5.32;1.90;;;;;;;;;;5042264;28;20759;-73
2023/04/02 14:57:47;;;;;;;8.20;1.45;;;;;;;;;;5041149;28;20163;-73
2023/04/02 15:00:20;;;;;;;10.45;1.80;;;;;;;;;;5042440;28;20060;-72
2023/04/02 15:02:48;;;;;;;9.13;1.92;;;;;;;;;;5042422;28;20033;-74